Time;durP1;ratioP1;P1;durP2;ratioP2;P2;SDS_P1;SDS_P2;PMS_P1;PMS_P2;Temp;Humidity;BMP_temperature;BMP_pressure;BME280_temperature;BME280_humidity;BME280_pressure;Samples;Min_cycle;Max_cycle;Signal;HPM_P1;HPM_P2
2021/12/16 00:01:49;;;;;;;38.63;12.45;;;7.90;99.90;;;;;;4924644;29;20086;-70
2021/12/16 00:09:41;;;;;;;28.38;12.02;;;7.90;99.90;;;;;;4928226;29;20109;-69
2021/12/16 00:31:46;;;;;;;29.35;12.32;;;8.10;99.90;;;;;;4915985;28;20043;-71
2021/12/16 00:34:12;;;;;;;37.40;13.15;;;8.10;99.90;;;;;;4934875;28;20050;-70
2021/12/16 00:36:44;;;;;;;35.75;13.20;;;8.10;99.90;;;;;;4909300;29;20050;-70
2021/12/16 00:39:14;;;;;;;28.58;12.43;;;8.10;99.90;;;;;;4924471;28;20058;-71
2021/12/16 00:41:42;;;;;;;30.23;12.75;;;8.20;99.90;;;;;;4917152;28;20134;-71
2021/12/16 00:44:21;;;;;;;36.05;13.40;;;8.10;99.90;;;;;;4929044;28;20121;-71
2021/12/16 00:54:44;;;;;;;28.13;12.90;;;8.20;99.90;;;;;;4910683;29;20431;-70
2021/12/16 00:57:14;;;;;;;29.45;12.10;;;8.20;99.90;;;;;;4930873;29;20047;-70
2021/12/16 00:59:44;;;;;;;30.48;12.55;;;8.20;99.90;;;;;;4911842;29;20130;-70
2021/12/16 01:02:29;;;;;;;28.58;11.80;;;8.20;99.90;;;;;;4926571;28;20513;-70
2021/12/16 01:36:09;;;;;;;27.27;10.10;;;8.30;99.90;;;;;;4927362;29;20130;-71
2021/12/16 01:47:16;;;;;;;30.73;10.15;;;8.40;99.90;;;;;;4915317;28;20069;-71
2021/12/16 01:57:36;;;;;;;24.83;10.27;;;8.30;99.90;;;;;;4946206;28;20063;-70
2021/12/16 02:00:42;;;;;;;33.75;10.40;;;8.40;99.90;;;;;;4945121;28;20055;-70
2021/12/16 02:03:08;;;;;;;28.08;11.15;;;8.40;99.90;;;;;;4928652;28;20094;-71
2021/12/16 02:05:57;;;;;;;33.38;10.80;;;8.40;99.90;;;;;;4917989;28;20124;-71
2021/12/16 02:08:32;;;;;;;26.80;11.07;;;8.40;99.90;;;;;;4904282;29;20074;-70
2021/12/16 02:34:18;;;;;;;18.52;9.18;;;8.50;99.90;;;;;;4924547;29;20134;-71
2021/12/16 02:36:13;;;;;;;27.42;10.40;;;8.40;99.90;;;;;;4931862;28;20046;-69
2021/12/16 02:38:39;;;;;;;28.10;10.43;;;8.40;99.90;;;;;;4912229;28;20051;-70
2021/12/16 02:41:04;;;;;;;26.88;10.20;;;8.40;99.90;;;;;;4909864;28;20048;-70
2021/12/16 02:48:43;;;;;;;26.65;10.88;;;8.40;99.90;;;;;;4942857;28;20048;-69
2021/12/16 02:51:14;;;;;;;19.27;9.98;;;8.40;99.90;;;;;;4928084;29;20462;-70
2021/12/16 02:53:45;;;;;;;31.95;10.63;;;8.30;99.90;;;;;;4927440;28;20094;-70
2021/12/16 02:56:12;;;;;;;26.58;11.65;;;8.30;99.90;;;;;;4925187;29;20129;-70
2021/12/16 02:58:42;;;;;;;25.23;10.70;;;8.30;99.90;;;;;;4928406;29;20039;-70
2021/12/16 03:01:16;;;;;;;23.98;10.15;;;8.20;99.90;;;;;;4898285;29;20526;-71
2021/12/16 03:03:42;;;;;;;23.80;10.63;;;8.20;99.90;;;;;;4911598;29;20043;-69
2021/12/16 03:06:10;;;;;;;24.35;10.23;;;8.10;99.90;;;;;;4922590;29;20077;-70
2021/12/16 03:08:37;;;;;;;23.15;10.88;;;8.10;99.90;;;;;;4903127;29;20043;-70
2021/12/16 03:11:16;;;;;;;28.60;9.75;;;8.10;99.90;;;;;;4896208;28;20943;-71
2021/12/16 03:16:26;;;;;;;30.75;9.95;;;8.00;99.90;;;;;;4943698;28;20047;-71
2021/12/16 03:19:09;;;;;;;22.27;9.63;;;7.90;99.90;;;;;;4911575;28;20047;-70
2021/12/16 03:21:49;;;;;;;27.92;9.23;;;7.90;99.90;;;;;;4904545;29;20087;-70
2021/12/16 03:24:43;;;;;;;28.20;9.80;;;7.90;99.90;;;;;;4917830;29;20091;-70
2021/12/16 03:30:13;;;;;;;22.85;9.23;;;7.80;99.90;;;;;;4917075;28;20052;-70
2021/12/16 03:38:13;;;;;;;20.60;8.90;;;7.70;99.90;;;;;;4916446;29;20082;-71
2021/12/16 03:40:40;;;;;;;22.25;9.50;;;7.60;99.90;;;;;;4919274;29;20055;-70
2021/12/16 03:43:18;;;;;;;20.90;9.10;;;7.60;99.90;;;;;;4928186;28;20056;-70
2021/12/16 03:48:58;;;;;;;22.33;9.30;;;7.50;99.90;;;;;;4910182;29;20067;-70
2021/12/16 03:51:35;;;;;;;23.90;9.02;;;7.50;99.90;;;;;;4940726;28;20410;-71
2021/12/16 03:54:09;;;;;;;19.35;10.15;;;7.40;99.90;;;;;;4926285;28;20055;-70
2021/12/16 03:56:37;;;;;;;23.63;8.98;;;7.40;99.90;;;;;;4928938;28;20043;-71
2021/12/16 03:59:05;;;;;;;19.08;9.30;;;7.30;99.90;;;;;;4924820;28;20608;-70
2021/12/16 04:01:31;;;;;;;30.00;10.13;;;7.30;99.90;;;;;;4924924;28;20060;-70
2021/12/16 04:03:58;;;;;;;21.35;10.32;;;7.20;99.90;;;;;;4905653;28;20048;-70
2021/12/16 04:06:27;;;;;;;17.80;9.13;;;7.20;99.90;;;;;;4926718;28;20058;-71
2021/12/16 04:08:54;;;;;;;22.13;10.07;;;7.20;99.90;;;;;;4926753;28;20079;-70
2021/12/16 04:11:28;;;;;;;20.98;9.55;;;7.10;99.90;;;;;;4913170;28;20062;-71
2021/12/16 04:13:57;;;;;;;21.95;9.60;;;7.00;99.90;;;;;;4924080;28;20498;-70
2021/12/16 04:16:37;;;;;;;23.63;10.35;;;7.00;99.90;;;;;;4922581;28;20145;-71
2021/12/16 04:19:11;;;;;;;17.77;10.38;;;7.00;99.90;;;;;;4923635;29;20051;-71
2021/12/16 04:21:41;;;;;;;17.83;9.93;;;7.00;99.90;;;;;;4922001;29;20048;-71
2021/12/16 04:24:07;;;;;;;20.88;9.52;;;7.00;99.90;;;;;;4926137;29;20051;-71
2021/12/16 04:26:34;;;;;;;19.23;9.63;;;7.10;99.90;;;;;;4924405;29;20043;-70
2021/12/16 04:29:00;;;;;;;22.00;10.80;;;6.90;99.90;;;;;;4913435;29;20406;-70
2021/12/16 04:31:26;;;;;;;21.90;10.23;;;6.90;99.90;;;;;;4928984;29;20138;-70
2021/12/16 04:33:52;;;;;;;21.73;10.15;;;6.90;99.90;;;;;;4912750;29;20130;-70
2021/12/16 04:36:19;;;;;;;24.52;10.05;;;6.90;99.90;;;;;;4924746;29;20471;-70
2021/12/16 04:38:46;;;;;;;23.38;10.48;;;6.90;99.90;;;;;;4931014;28;20869;-70
2021/12/16 04:41:15;;;;;;;17.55;9.98;;;6.80;99.90;;;;;;4928228;28;20039;-70
2021/12/16 04:43:48;;;;;;;20.63;10.52;;;6.80;99.90;;;;;;4926422;28;20043;-71
2021/12/16 04:46:18;;;;;;;14.95;9.02;;;6.80;99.90;;;;;;4945152;28;20047;-71
2021/12/16 04:48:46;;;;;;;18.35;9.27;;;6.80;99.90;;;;;;4910570;29;21136;-70
2021/12/16 04:51:13;;;;;;;19.90;10.18;;;6.80;99.90;;;;;;4930822;29;20119;-70
2021/12/16 04:53:39;;;;;;;23.90;9.52;;;6.70;99.90;;;;;;4913778;29;20047;-71
2021/12/16 04:56:08;;;;;;;18.63;9.25;;;6.80;99.90;;;;;;4930243;29;20047;-70
2021/12/16 04:58:34;;;;;;;22.33;9.35;;;6.70;99.90;;;;;;4930261;29;20066;-70
2021/12/16 05:01:01;;;;;;;19.55;9.55;;;6.70;99.90;;;;;;4930338;29;20047;-70
2021/12/16 05:03:27;;;;;;;16.20;9.05;;;6.70;99.90;;;;;;4910832;29;20081;-69
2021/12/16 05:05:54;;;;;;;21.80;9.70;;;6.60;99.90;;;;;;4930316;29;20054;-70
2021/12/16 05:08:20;;;;;;;16.88;8.45;;;6.60;99.90;;;;;;4934705;28;20666;-71
2021/12/16 05:10:49;;;;;;;21.27;10.45;;;6.50;99.90;;;;;;4931309;28;20047;-71
2021/12/16 05:13:17;;;;;;;31.73;10.18;;;6.50;99.90;;;;;;4899676;28;20947;-70
2021/12/16 05:15:43;;;;;;;15.18;8.35;;;6.50;99.90;;;;;;4918506;29;20051;-71
2021/12/16 05:18:13;;;;;;;22.48;9.55;;;6.40;99.90;;;;;;4909770;28;20081;-71
2021/12/16 05:20:43;;;;;;;17.65;9.40;;;6.40;99.90;;;;;;4914495;28;20474;-71
2021/12/16 05:28:41;;;;;;;23.00;10.27;;;6.30;99.90;;;;;;4925344;28;20130;-70
2021/12/16 05:31:07;;;;;;;25.48;10.88;;;6.20;99.90;;;;;;4931301;28;20087;-71
2021/12/16 05:33:33;;;;;;;24.88;10.88;;;6.30;99.90;;;;;;4894713;28;20051;-71
2021/12/16 05:35:59;;;;;;;26.52;10.90;;;6.30;99.90;;;;;;4928884;28;20058;-70
2021/12/16 05:38:27;;;;;;;21.88;10.25;;;6.30;99.90;;;;;;4927584;28;20422;-70
2021/12/16 05:40:55;;;;;;;23.15;11.02;;;6.30;99.90;;;;;;4929451;28;20053;-71
2021/12/16 05:43:24;;;;;;;23.05;11.05;;;6.30;99.90;;;;;;4907277;28;20043;-70
2021/12/16 05:45:53;;;;;;;25.05;10.93;;;6.40;99.90;;;;;;4924252;28;20430;-70
2021/12/16 05:48:24;;;;;;;23.88;10.10;;;6.30;99.90;;;;;;4913723;28;20036;-70
2021/12/16 05:50:54;;;;;;;28.13;11.65;;;6.40;99.90;;;;;;4915322;28;20055;-71
2021/12/16 05:53:20;;;;;;;19.38;10.57;;;6.30;99.90;;;;;;4924230;28;20585;-71
2021/12/16 05:55:46;;;;;;;26.17;10.82;;;6.40;99.90;;;;;;4929428;28;20044;-69
2021/12/16 05:58:18;;;;;;;17.70;10.10;;;6.40;99.90;;;;;;4898477;28;20504;-71
2021/12/16 06:00:46;;;;;;;24.80;11.60;;;6.30;99.90;;;;;;4895517;28;20483;-69
2021/12/16 06:03:13;;;;;;;22.17;9.85;;;6.30;99.90;;;;;;4929290;28;20189;-70
2021/12/16 06:05:39;;;;;;;25.88;10.52;;;6.30;99.90;;;;;;4915194;28;20047;-71
2021/12/16 06:08:05;;;;;;;23.85;10.20;;;6.30;99.90;;;;;;4921285;28;20039;-71
2021/12/16 06:11:12;;;;;;;18.27;10.00;;;6.30;99.90;;;;;;4925527;28;20039;-70
2021/12/16 06:13:18;;;;;;;25.65;10.57;;;6.20;99.90;;;;;;4922194;29;20066;-71
2021/12/16 06:26:34;;;;;;;27.13;11.98;;;6.20;99.90;;;;;;4912572;29;20422;-70
2021/12/16 06:29:00;;;;;;;24.23;11.00;;;6.10;99.90;;;;;;4920833;29;20047;-71
2021/12/16 06:31:26;;;;;;;23.20;11.30;;;6.10;99.90;;;;;;4926321;29;20062;-71
2021/12/16 06:33:53;;;;;;;20.83;11.05;;;6.10;99.90;;;;;;4927083;29;20525;-70
2021/12/16 06:36:19;;;;;;;20.95;10.95;;;6.10;99.90;;;;;;4941726;28;20047;-70
2021/12/16 06:38:45;;;;;;;25.83;12.25;;;6.10;99.90;;;;;;4909111;29;20666;-70
2021/12/16 06:41:11;;;;;;;23.80;10.85;;;6.10;99.90;;;;;;4908142;28;20505;-70
2021/12/16 06:43:37;;;;;;;20.75;11.25;;;6.10;99.90;;;;;;4910964;28;20039;-71
2021/12/16 06:46:07;;;;;;;23.33;11.48;;;6.10;99.90;;;;;;4917247;28;20129;-70
2021/12/16 06:48:37;;;;;;;23.73;11.10;;;6.10;99.90;;;;;;4926069;28;20043;-71
2021/12/16 06:51:09;;;;;;;23.63;11.57;;;6.10;99.90;;;;;;4913197;28;20063;-71
2021/12/16 06:56:39;;;;;;;25.83;11.65;;;6.10;99.90;;;;;;4922727;28;20051;-71
2021/12/16 06:59:21;;;;;;;34.10;12.40;;;6.00;99.90;;;;;;4908274;28;20039;-71
2021/12/16 07:02:02;;;;;;;24.70;11.52;;;6.00;99.90;;;;;;4899144;29;20047;-71
2021/12/16 07:04:29;;;;;;;26.05;11.52;;;5.90;99.90;;;;;;4916770;29;20051;-70
2021/12/16 07:06:55;;;;;;;26.45;12.52;;;5.90;99.90;;;;;;4914008;29;20043;-71
2021/12/16 07:09:21;;;;;;;21.67;11.52;;;5.90;99.90;;;;;;4926406;28;20489;-70
2021/12/16 07:11:52;;;;;;;26.13;11.65;;;6.00;99.90;;;;;;4943079;28;20061;-70
2021/12/16 07:14:23;;;;;;;24.60;10.27;;;5.90;99.90;;;;;;4926707;29;20391;-71
2021/12/16 07:16:52;;;;;;;24.23;11.45;;;5.90;99.90;;;;;;4930862;29;20067;-71
2021/12/16 07:19:18;;;;;;;26.92;12.30;;;5.90;99.90;;;;;;4924049;29;20123;-71
2021/12/16 07:21:44;;;;;;;30.75;12.90;;;5.90;99.90;;;;;;4910149;29;20137;-71
2021/12/16 07:24:14;;;;;;;24.50;12.98;;;5.80;99.90;;;;;;4930957;29;20042;-69
2021/12/16 07:26:41;;;;;;;29.58;13.80;;;5.80;99.90;;;;;;4931837;29;20047;-71
2021/12/16 07:29:08;;;;;;;22.75;12.50;;;5.90;99.90;;;;;;4931084;29;20054;-71
2021/12/16 07:31:34;;;;;;;28.05;13.18;;;5.90;99.90;;;;;;4897704;29;20129;-70
2021/12/16 07:34:01;;;;;;;23.85;12.43;;;5.90;99.90;;;;;;4929994;29;20047;-71
2021/12/16 07:36:28;;;;;;;32.42;13.65;;;5.90;99.90;;;;;;4908568;29;20059;-70
2021/12/16 07:38:54;;;;;;;30.45;13.55;;;5.90;99.90;;;;;;4922729;29;20039;-71
2021/12/16 07:41:21;;;;;;;28.73;12.82;;;5.90;99.90;;;;;;4912208;29;20055;-72
2021/12/16 07:44:09;;;;;;;27.38;12.75;;;5.90;99.90;;;;;;4927027;28;20138;-70
2021/12/16 07:46:57;;;;;;;23.02;12.27;;;5.90;99.90;;;;;;4925634;28;20054;-71
2021/12/16 07:49:27;;;;;;;22.73;11.93;;;5.90;99.90;;;;;;4908028;28;20039;-72
2021/12/16 07:51:55;;;;;;;16.13;10.98;;;5.90;99.90;;;;;;4929624;28;20098;-71
2021/12/16 07:54:22;;;;;;;22.95;12.95;;;5.90;99.90;;;;;;4927595;28;20549;-71
2021/12/16 07:56:52;;;;;;;22.85;12.75;;;6.00;99.90;;;;;;4922084;28;20054;-71
2021/12/16 07:59:19;;;;;;;36.83;14.57;;;5.90;99.90;;;;;;4929361;29;20138;-71
2021/12/16 08:01:45;;;;;;;30.77;13.75;;;5.90;99.90;;;;;;4922710;28;20051;-71
2021/12/16 08:04:21;;;;;;;23.02;12.18;;;6.00;99.90;;;;;;4926613;28;20043;-71
2021/12/16 08:06:51;;;;;;;26.92;11.88;;;5.90;99.90;;;;;;4909826;29;20501;-71
2021/12/16 08:09:18;;;;;;;22.15;12.50;;;5.90;99.90;;;;;;4928079;29;20048;-71
2021/12/16 08:11:46;;;;;;;30.35;13.32;;;5.90;99.90;;;;;;4941191;28;20146;-71
2021/12/16 08:14:12;;;;;;;24.10;13.25;;;5.90;99.90;;;;;;4922785;29;20051;-71
2021/12/16 08:16:38;;;;;;;26.75;12.90;;;6.00;99.90;;;;;;4910109;29;20495;-71
2021/12/16 08:19:06;;;;;;;25.35;13.73;;;6.00;99.90;;;;;;4941804;28;20047;-71
2021/12/16 08:21:32;;;;;;;30.58;14.38;;;6.00;99.90;;;;;;4945574;28;20175;-71
2021/12/16 08:24:03;;;;;;;31.98;14.18;;;6.00;99.90;;;;;;4913408;29;20043;-71
2021/12/16 08:26:29;;;;;;;33.78;14.13;;;6.00;99.90;;;;;;4914511;29;20138;-71
2021/12/16 08:28:56;;;;;;;37.42;15.18;;;6.00;99.90;;;;;;4923112;29;20095;-71
2021/12/16 08:31:23;;;;;;;26.95;13.98;;;6.00;99.90;;;;;;4924747;28;20537;-71
2021/12/16 08:33:50;;;;;;;28.15;13.45;;;6.10;99.90;;;;;;4913964;28;20545;-70
2021/12/16 08:36:17;;;;;;;32.13;14.38;;;6.10;99.90;;;;;;4922558;28;20494;-71
2021/12/16 08:38:44;;;;;;;37.08;14.95;;;6.10;99.90;;;;;;4926669;28;20134;-71
2021/12/16 08:41:20;;;;;;;33.47;16.00;;;6.10;99.90;;;;;;4907945;28;20070;-71
2021/12/16 08:43:46;;;;;;;32.83;14.55;;;6.20;99.90;;;;;;4928549;29;20050;-70
2021/12/16 08:46:19;;;;;;;40.50;16.10;;;6.20;99.90;;;;;;4946353;28;20047;-71
2021/12/16 08:48:46;;;;;;;35.90;15.48;;;6.20;99.90;;;;;;4925501;29;20499;-71
2021/12/16 08:51:14;;;;;;;34.13;16.02;;;6.30;99.90;;;;;;4915082;29;20163;-70
2021/12/16 08:53:40;;;;;;;42.17;18.20;;;6.30;99.90;;;;;;4900305;29;20097;-71
2021/12/16 08:56:08;;;;;;;41.38;18.65;;;6.30;99.90;;;;;;4929978;29;20395;-71
2021/12/16 08:58:37;;;;;;;33.60;16.65;;;6.40;99.90;;;;;;4909302;29;20046;-69
2021/12/16 09:01:25;;;;;;;38.83;17.67;;;6.40;99.90;;;;;;4929792;29;20042;-71
2021/12/16 09:03:53;;;;;;;37.72;17.77;;;6.40;99.90;;;;;;4931507;28;20194;-71
2021/12/16 09:06:19;;;;;;;40.33;17.65;;;6.40;99.90;;;;;;4926785;28;20039;-71
2021/12/16 09:08:46;;;;;;;43.25;18.45;;;6.40;99.90;;;;;;4897448;28;20066;-71
2021/12/16 09:11:18;;;;;;;38.88;17.63;;;6.40;99.90;;;;;;4926773;28;20043;-70
2021/12/16 09:13:45;;;;;;;46.40;17.90;;;6.50;99.90;;;;;;4895132;28;20073;-71
2021/12/16 09:16:16;;;;;;;45.45;17.77;;;6.50;99.90;;;;;;4926117;28;20078;-70
2021/12/16 09:18:42;;;;;;;44.17;20.35;;;6.50;99.90;;;;;;4945961;28;20051;-71
2021/12/16 09:21:21;;;;;;;38.95;19.05;;;6.60;99.90;;;;;;4915284;28;20043;-70
2021/12/16 09:23:48;;;;;;;39.17;18.73;;;6.60;99.90;;;;;;4928698;28;20074;-70
2021/12/16 09:26:15;;;;;;;72.43;21.48;;;6.60;99.90;;;;;;4927599;28;20137;-70
2021/12/16 09:28:41;;;;;;;73.93;22.63;;;6.60;99.90;;;;;;4913027;28;20069;-70
2021/12/16 09:31:11;;;;;;;62.90;22.02;;;6.70;99.90;;;;;;4929169;28;20047;-70
2021/12/16 09:33:43;;;;;;;82.22;24.90;;;6.70;99.90;;;;;;4928443;28;20042;-70
2021/12/16 09:36:14;;;;;;;67.30;23.60;;;6.80;99.90;;;;;;4926317;28;20122;-70
2021/12/16 09:38:41;;;;;;;60.97;23.42;;;6.90;99.90;;;;;;4913546;28;20046;-69
2021/12/16 09:41:07;;;;;;;85.72;24.13;;;6.90;99.90;;;;;;4931698;28;20047;-71
2021/12/16 09:43:38;;;;;;;59.15;21.73;;;6.90;99.90;;;;;;4915367;28;20093;-70
2021/12/16 09:46:07;;;;;;;99.35;25.35;;;7.00;99.90;;;;;;4915033;28;20047;-71
2021/12/16 09:48:35;;;;;;;135.00;28.92;;;7.00;99.90;;;;;;4911904;28;20116;-70
2021/12/16 09:51:04;;;;;;;110.68;26.52;;;7.10;99.90;;;;;;4924789;28;20426;-71
2021/12/16 09:53:31;;;;;;;103.57;24.15;;;7.10;99.90;;;;;;4923406;28;20051;-70
2021/12/16 09:56:00;;;;;;;213.02;31.77;;;7.20;99.90;;;;;;4941477;28;20564;-70
2021/12/16 09:58:29;;;;;;;136.10;28.83;;;7.20;99.90;;;;;;4913357;28;20045;-71
2021/12/16 10:00:56;;;;;;;168.05;25.83;;;7.20;99.90;;;;;;4931132;29;20371;-71
2021/12/16 10:03:23;;;;;;;107.10;22.65;;;7.30;99.90;;;;;;4924379;28;20520;-70
2021/12/16 10:05:48;;;;;;;73.35;21.35;;;7.30;99.90;;;;;;4909893;28;20046;-71
2021/12/16 10:08:15;;;;;;;357.83;40.80;;;7.30;99.90;;;;;;4899067;28;20637;-71
2021/12/16 10:10:41;;;;;;;126.18;23.92;;;7.40;99.90;;;;;;4897006;28;20043;-71
2021/12/16 10:13:07;;;;;;;136.68;24.70;;;7.40;99.90;;;;;;4914822;28;20481;-71
2021/12/16 10:18:13;;;;;;;182.70;30.13;;;7.50;99.90;;;;;;4930599;28;20130;-71
2021/12/16 10:20:45;;;;;;;109.90;23.17;;;7.50;99.90;;;;;;4931598;29;20051;-71
2021/12/16 10:23:20;;;;;;;65.72;19.95;;;7.50;99.90;;;;;;4929366;29;20110;-71
2021/12/16 10:25:48;;;;;;;116.55;25.35;;;7.50;99.90;;;;;;4931752;29;20049;-71
2021/12/16 10:28:20;;;;;;;103.75;22.50;;;7.60;99.90;;;;;;4930906;28;20461;-71
2021/12/16 10:31:15;;;;;;;194.90;25.33;;;7.60;99.90;;;;;;4915819;29;20043;-71
2021/12/16 10:33:49;;;;;;;172.95;27.27;;;7.60;99.90;;;;;;4915931;28;20043;-70
2021/12/16 10:36:34;;;;;;;81.43;20.60;;;7.70;99.90;;;;;;4929093;28;20042;-71
2021/12/16 10:39:13;;;;;;;121.35;23.08;;;7.60;99.90;;;;;;4929286;28;20042;-71
2021/12/16 10:41:51;;;;;;;159.95;28.20;;;7.70;99.90;;;;;;4932848;28;20047;-71
2021/12/16 10:44:20;;;;;;;150.40;22.98;;;7.70;99.90;;;;;;4929879;28;20043;-71
2021/12/16 10:47:04;;;;;;;64.45;23.58;;;7.70;99.90;;;;;;4929075;28;20044;-71
2021/12/16 10:49:33;;;;;;;132.15;25.77;;;7.70;99.90;;;;;;4914374;29;20455;-71
2021/12/16 10:52:03;;;;;;;143.20;27.27;;;7.80;99.90;;;;;;4929483;28;20399;-69
2021/12/16 10:54:37;;;;;;;159.77;25.60;;;7.80;99.90;;;;;;4928715;29;20486;-71
2021/12/16 10:57:12;;;;;;;109.10;25.25;;;7.80;99.90;;;;;;4920098;28;20396;-71
2021/12/16 10:59:46;;;;;;;103.75;21.60;;;7.90;99.90;;;;;;4924830;29;20147;-70
2021/12/16 11:02:21;;;;;;;76.55;19.15;;;7.90;99.90;;;;;;4928057;28;20047;-71
2021/12/16 11:04:51;;;;;;;146.95;22.92;;;7.90;99.90;;;;;;4910006;28;20079;-70
2021/12/16 11:07:22;;;;;;;93.05;21.17;;;7.90;99.90;;;;;;4906795;28;20335;-71
2021/12/16 11:09:53;;;;;;;119.97;22.15;;;7.90;99.90;;;;;;4925713;28;20142;-71
2021/12/16 11:12:43;;;;;;;59.10;20.30;;;7.90;99.90;;;;;;4920663;28;20058;-70
2021/12/16 11:15:21;;;;;;;114.97;21.95;;;8.00;99.90;;;;;;4939267;28;20507;-70
2021/12/16 11:17:56;;;;;;;212.50;32.33;;;8.00;99.90;;;;;;4925219;28;20082;-71
2021/12/16 11:20:33;;;;;;;151.18;25.75;;;8.00;99.90;;;;;;4922470;28;20506;-70
2021/12/16 11:23:41;;;;;;;104.30;23.08;;;8.00;99.90;;;;;;4943946;28;20513;-70
2021/12/16 11:26:14;;;;;;;56.17;19.13;;;8.00;99.90;;;;;;4908157;28;20055;-69
2021/12/16 11:28:45;;;;;;;109.00;20.75;;;8.10;99.90;;;;;;4930187;28;20531;-72
2021/12/16 11:31:14;;;;;;;107.90;22.20;;;8.00;99.90;;;;;;4924155;28;20970;-71
2021/12/16 11:33:48;;;;;;;73.82;22.38;;;8.00;99.90;;;;;;4928928;28;20043;-70
2021/12/16 11:36:20;;;;;;;161.32;24.67;;;8.10;99.90;;;;;;4910099;28;20554;-71
2021/12/16 11:39:01;;;;;;;108.65;25.45;;;8.10;99.90;;;;;;4931503;28;20051;-71
2021/12/16 11:41:35;;;;;;;110.57;23.38;;;8.10;99.90;;;;;;4908532;29;20055;-71
2021/12/16 11:44:13;;;;;;;116.10;26.38;;;8.20;99.90;;;;;;4924963;29;20047;-70
2021/12/16 11:47:04;;;;;;;80.22;20.63;;;8.20;99.90;;;;;;4929695;29;20165;-71
2021/12/16 11:49:39;;;;;;;99.90;21.55;;;8.20;99.90;;;;;;4927866;28;20497;-70
2021/12/16 11:52:15;;;;;;;80.30;21.67;;;8.20;99.90;;;;;;4908125;28;20525;-71
2021/12/16 11:54:48;;;;;;;113.30;24.10;;;8.20;99.90;;;;;;4913134;28;20154;-71
2021/12/16 11:57:31;;;;;;;91.70;22.60;;;8.20;99.90;;;;;;4932147;29;20555;-71
2021/12/16 12:00:14;;;;;;;80.60;20.95;;;8.20;99.90;;;;;;4927475;28;20588;-69
2021/12/16 12:02:55;;;;;;;51.88;19.88;;;8.20;99.90;;;;;;4929009;28;20059;-70
2021/12/16 12:05:44;;;;;;;66.50;21.25;;;8.20;99.90;;;;;;4932721;29;20047;-70
2021/12/16 12:08:14;;;;;;;42.58;18.48;;;8.30;99.90;;;;;;4931827;28;20040;-69
2021/12/16 12:10:46;;;;;;;41.95;18.58;;;8.30;99.90;;;;;;4912397;28;20047;-71
2021/12/16 12:13:16;;;;;;;64.78;22.42;;;8.30;99.90;;;;;;4909941;28;20058;-69
2021/12/16 12:16:13;;;;;;;85.55;24.48;;;8.30;99.90;;;;;;4946235;28;20046;-71
2021/12/16 12:18:55;;;;;;;65.60;21.70;;;8.30;99.90;;;;;;4945829;28;20066;-70
2021/12/16 12:21:49;;;;;;;83.25;22.05;;;8.30;99.90;;;;;;4927915;29;20054;-71
2021/12/16 12:24:31;;;;;;;111.13;25.65;;;8.40;99.90;;;;;;4930749;28;20074;-71
2021/12/16 12:27:04;;;;;;;71.85;21.95;;;8.40;99.90;;;;;;4930250;29;20106;-70
2021/12/16 12:30:01;;;;;;;67.05;21.15;;;8.40;99.90;;;;;;4929095;29;20051;-71
2021/12/16 12:32:29;;;;;;;51.15;19.98;;;8.40;99.90;;;;;;4913089;28;20063;-70
2021/12/16 12:35:14;;;;;;;65.65;20.77;;;8.40;99.90;;;;;;4927455;28;20129;-70
2021/12/16 12:37:45;;;;;;;106.15;22.63;;;8.50;99.90;;;;;;4932370;29;20502;-70
2021/12/16 12:40:25;;;;;;;72.88;24.08;;;8.50;99.90;;;;;;4928624;29;20513;-71
2021/12/16 12:42:53;;;;;;;57.30;21.13;;;8.40;99.90;;;;;;4915022;28;20051;-70
2021/12/16 12:45:23;;;;;;;58.13;21.58;;;8.50;99.90;;;;;;4929190;29;20352;-71
2021/12/16 12:47:53;;;;;;;52.58;20.67;;;8.50;99.90;;;;;;4927863;29;20043;-71
2021/12/16 12:50:23;;;;;;;54.80;20.88;;;8.50;99.90;;;;;;4924913;28;20466;-70
2021/12/16 12:52:53;;;;;;;54.00;21.08;;;8.50;99.90;;;;;;4908787;28;20055;-70
2021/12/16 12:55:32;;;;;;;51.47;20.38;;;8.50;99.90;;;;;;4928068;28;20070;-70
2021/12/16 12:58:04;;;;;;;56.08;21.67;;;8.60;99.90;;;;;;4910614;28;20054;-70
2021/12/16 13:00:34;;;;;;;58.05;22.75;;;8.60;99.90;;;;;;4914551;28;20143;-70
2021/12/16 13:03:16;;;;;;;73.85;24.08;;;8.60;99.90;;;;;;4927663;28;20503;-70
2021/12/16 13:05:51;;;;;;;61.05;23.30;;;8.60;99.90;;;;;;4912836;29;20051;-70
2021/12/16 13:08:25;;;;;;;62.58;23.23;;;8.60;99.90;;;;;;4913828;29;20043;-70
2021/12/16 13:10:51;;;;;;;61.58;22.38;;;8.60;99.90;;;;;;4911723;29;20043;-71
2021/12/16 13:27:34;;;;;;;53.40;19.73;;;8.70;99.90;;;;;;4923227;28;20525;-67
2021/12/16 13:32:40;;;;;;;55.17;20.20;;;8.70;99.90;;;;;;4904684;28;20047;-66
2021/12/16 13:37:55;;;;;;;59.80;21.13;;;8.70;99.90;;;;;;4940290;28;20090;-66
2021/12/16 13:40:30;;;;;;;62.33;20.45;;;8.70;99.90;;;;;;4910073;29;20155;-67
2021/12/16 13:43:00;;;;;;;59.42;22.02;;;8.80;99.90;;;;;;4893475;29;20103;-67
2021/12/16 13:45:34;;;;;;;48.17;20.08;;;8.80;99.90;;;;;;4911122;29;20508;-67
2021/12/16 13:48:16;;;;;;;47.03;19.13;;;8.70;99.90;;;;;;4924469;29;20418;-67
2021/12/16 14:05:45;;;;;;;41.70;13.50;;;8.80;99.90;;;;;;4922059;28;20074;-67
2021/12/16 14:07:59;;;;;;;33.97;12.13;;;8.80;99.90;;;;;;4929566;28;20055;-67
2021/12/16 14:10:47;;;;;;;45.05;14.80;;;8.80;99.90;;;;;;4923834;28;20047;-66
2021/12/16 14:25:40;;;;;;;40.22;13.43;;;8.80;99.90;;;;;;4908319;28;20470;-67
2021/12/16 14:42:11;;;;;;;46.55;15.20;;;8.70;99.90;;;;;;4924552;28;20044;-67
2021/12/16 14:49:51;;;;;;;51.22;15.57;;;8.70;99.90;;;;;;4921227;29;20043;-67
2021/12/16 14:52:29;;;;;;;43.28;14.50;;;8.70;99.90;;;;;;4921019;29;20057;-67
2021/12/16 14:55:06;;;;;;;44.55;13.55;;;8.70;99.90;;;;;;4938597;28;20894;-67
2021/12/16 14:57:47;;;;;;;32.88;12.52;;;8.70;99.90;;;;;;4922065;28;20483;-67
2021/12/16 15:00:16;;;;;;;40.45;13.52;;;8.70;99.90;;;;;;4906684;28;20031;-67
2021/12/16 15:02:45;;;;;;;55.58;14.95;;;8.70;99.90;;;;;;4906813;28;20059;-69
2021/12/16 15:05:34;;;;;;;50.08;14.88;;;8.70;99.90;;;;;;4923355;28;20122;-69
2021/12/16 15:08:18;;;;;;;40.28;14.85;;;8.60;99.90;;;;;;4906413;29;20403;-68
2021/12/16 15:10:45;;;;;;;47.63;15.40;;;8.60;99.90;;;;;;4922899;28;20486;-68
2021/12/16 15:13:39;;;;;;;42.88;14.77;;;8.60;99.90;;;;;;4921502;28;20091;-69
2021/12/16 15:38:41;;;;;;;39.65;15.63;;;8.40;99.90;;;;;;4924450;29;20051;-68
2021/12/16 15:40:36;;;;;;;37.80;15.70;;;8.50;99.90;;;;;;4902850;28;20074;-68
2021/12/16 15:43:06;;;;;;;43.80;16.45;;;8.50;99.90;;;;;;4909663;28;20151;-68
2021/12/16 15:45:48;;;;;;;39.63;16.10;;;8.50;99.90;;;;;;4922781;28;20043;-68
2021/12/16 15:48:27;;;;;;;39.85;16.65;;;8.50;99.90;;;;;;4936394;28;20039;-68
2021/12/16 15:50:55;;;;;;;38.63;15.82;;;8.50;99.90;;;;;;4921402;28;20070;-68
2021/12/16 15:53:24;;;;;;;39.33;15.90;;;8.50;99.90;;;;;;4923413;28;20051;-68
2021/12/16 15:55:55;;;;;;;31.95;15.05;;;8.40;99.90;;;;;;4922700;28;20053;-64
2021/12/16 15:58:27;;;;;;;33.85;15.05;;;8.40;99.90;;;;;;4892858;28;20043;-65
2021/12/16 16:01:00;;;;;;;38.95;16.95;;;8.40;99.90;;;;;;4910929;29;20055;-65
2021/12/16 16:03:27;;;;;;;50.03;17.77;;;8.40;99.90;;;;;;4939878;28;20044;-65
2021/12/16 16:05:58;;;;;;;37.88;16.45;;;8.40;99.90;;;;;;4909399;29;20057;-64
2021/12/16 16:08:27;;;;;;;40.25;17.20;;;8.40;99.90;;;;;;4909107;29;20047;-65
2021/12/16 16:11:03;;;;;;;41.97;17.05;;;8.40;99.90;;;;;;4924848;29;20051;-64
2021/12/16 16:13:37;;;;;;;40.80;17.88;;;8.40;99.90;;;;;;4905594;29;20058;-66
2021/12/16 16:16:06;;;;;;;47.80;18.20;;;8.40;99.90;;;;;;4922961;29;20426;-64
2021/12/16 16:18:36;;;;;;;42.20;17.60;;;8.50;99.90;;;;;;4923526;28;20129;-66
2021/12/16 16:21:16;;;;;;;40.47;17.23;;;8.40;99.90;;;;;;4925470;28;20130;-64
2021/12/16 16:23:48;;;;;;;38.53;17.05;;;8.40;99.90;;;;;;4923094;28;20571;-64
2021/12/16 16:26:15;;;;;;;43.72;18.95;;;8.50;99.90;;;;;;4923189;28;20089;-64
2021/12/16 16:28:44;;;;;;;47.33;19.27;;;8.50;99.90;;;;;;4909825;28;20071;-65
2021/12/16 16:31:14;;;;;;;49.42;20.83;;;8.50;99.90;;;;;;4919805;28;20039;-64
2021/12/16 16:33:40;;;;;;;50.75;20.77;;;8.50;99.90;;;;;;4907305;28;20055;-64
2021/12/16 16:36:11;;;;;;;57.30;21.08;;;8.50;99.90;;;;;;4908604;28;20185;-65
2021/12/16 16:38:42;;;;;;;51.67;20.70;;;8.40;99.90;;;;;;4907019;28;20051;-66
2021/12/16 16:41:13;;;;;;;54.35;20.50;;;8.50;99.90;;;;;;4918072;28;20410;-65
2021/12/16 16:44:14;;;;;;;42.80;19.15;;;8.50;99.90;;;;;;4924778;28;20487;-64
2021/12/16 16:46:45;;;;;;;59.53;21.05;;;8.40;99.90;;;;;;4922068;28;20507;-64
2021/12/16 16:49:30;;;;;;;59.55;21.20;;;8.50;99.90;;;;;;4923159;28;20048;-65
2021/12/16 16:52:00;;;;;;;68.97;22.55;;;8.50;99.90;;;;;;4920868;28;20070;-66